Time;durP1;ratioP1;P1;durP2;ratioP2;P2;SDS_P1;SDS_P2;PMS_P1;PMS_P2;Temp;Humidity;BMP_temperature;BMP_pressure;BME280_temperature;BME280_humidity;BME280_pressure;Samples;Min_cycle;Max_cycle;Signal;HPM_P1;HPM_P2
2024/01/17 00:01:41;;;;;;;21.67;6.80;;;-3.00;98.00;;;;;;5051244;28;20456;-66
2024/01/17 00:04:09;;;;;;;17.33;7.00;;;-2.90;98.00;;;;;;5051722;28;20487;-66
2024/01/17 00:06:37;;;;;;;19.10;6.63;;;-3.00;98.00;;;;;;5051594;28;20491;-66
2024/01/17 00:09:05;;;;;;;21.90;8.20;;;-3.00;98.00;;;;;;5050968;28;20475;-66
2024/01/17 00:11:33;;;;;;;15.50;7.30;;;-2.80;98.00;;;;;;5051124;28;20611;-66
2024/01/17 00:14:00;;;;;;;25.40;8.63;;;-2.80;98.00;;;;;;5051840;28;20204;-66
2024/01/17 00:16:27;;;;;;;19.73;7.90;;;-2.90;98.00;;;;;;5051002;28;20454;-66
2024/01/17 00:18:55;;;;;;;19.00;7.75;;;-2.90;98.00;;;;;;5050500;28;20461;-66
2024/01/17 00:21:22;;;;;;;16.48;7.13;;;-2.80;98.00;;;;;;5051594;28;20233;-66
2024/01/17 00:23:51;;;;;;;15.60;6.80;;;-2.80;98.00;;;;;;5051634;28;20215;-66
2024/01/17 00:26:18;;;;;;;22.35;7.82;;;-2.80;98.00;;;;;;5051036;28;20450;-66
2024/01/17 00:28:45;;;;;;;18.95;7.68;;;-2.90;98.00;;;;;;5051224;28;20207;-66
2024/01/17 00:31:12;;;;;;;20.58;8.40;;;-3.00;98.00;;;;;;5051650;28;20250;-66
2024/01/17 00:33:39;;;;;;;24.15;7.70;;;-3.00;98.00;;;;;;5051403;28;20210;-65
2024/01/17 00:36:06;;;;;;;18.05;6.70;;;-3.00;98.00;;;;;;5050729;28;20261;-66
2024/01/17 00:38:33;;;;;;;19.17;7.82;;;-3.00;98.00;;;;;;5050678;28;20207;-65
2024/01/17 00:41:05;;;;;;;15.73;6.63;;;-3.00;98.00;;;;;;5050933;28;20215;-66
2024/01/17 00:43:32;;;;;;;20.27;7.35;;;-3.00;98.00;;;;;;5050455;28;20830;-66
2024/01/17 00:46:00;;;;;;;17.40;6.32;;;-2.90;98.00;;;;;;5051290;28;20286;-66
2024/01/17 00:48:27;;;;;;;22.60;8.60;;;-2.80;98.00;;;;;;5048846;28;20195;-65
2024/01/17 00:50:54;;;;;;;26.23;7.00;;;-2.90;98.00;;;;;;5051352;28;20442;-66
2024/01/17 00:53:22;;;;;;;20.38;7.68;;;-2.90;98.00;;;;;;5050787;28;20661;-66
2024/01/17 00:55:49;;;;;;;16.17;6.68;;;-2.90;98.00;;;;;;5050682;28;20253;-66
2024/01/17 00:58:18;;;;;;;22.13;7.53;;;-3.00;98.00;;;;;;5051558;28;20251;-65
2024/01/17 01:00:45;;;;;;;28.23;7.85;;;-3.10;98.00;;;;;;5051393;28;20506;-66
2024/01/17 01:03:12;;;;;;;18.75;7.60;;;-3.00;98.00;;;;;;5050260;28;20278;-66
2024/01/17 01:05:40;;;;;;;17.50;8.05;;;-3.10;98.00;;;;;;5053907;28;20208;-66
2024/01/17 01:08:06;;;;;;;22.92;8.07;;;-3.20;98.00;;;;;;5054819;28;20204;-66
2024/01/17 01:10:33;;;;;;;21.20;8.30;;;-3.30;98.00;;;;;;5054112;28;20201;-66
2024/01/17 01:13:01;;;;;;;19.33;6.95;;;-3.50;98.00;;;;;;5053879;28;20200;-66
2024/01/17 01:15:29;;;;;;;24.90;8.30;;;-3.40;98.00;;;;;;5054384;28;20208;-66
2024/01/17 01:17:56;;;;;;;18.60;7.45;;;-3.10;98.00;;;;;;5054534;28;20199;-66
2024/01/17 01:20:23;;;;;;;18.45;7.85;;;-3.00;98.00;;;;;;5054361;28;20205;-66
2024/01/17 01:22:50;;;;;;;21.83;8.13;;;-3.00;98.00;;;;;;5054246;28;20253;-66
2024/01/17 01:25:18;;;;;;;16.23;7.20;;;-3.00;98.00;;;;;;5054388;28;20447;-65
2024/01/17 01:27:45;;;;;;;21.30;8.23;;;-3.00;98.00;;;;;;5052798;28;20460;-66
2024/01/17 01:30:12;;;;;;;18.07;7.17;;;-2.90;98.00;;;;;;5053283;28;20448;-66
2024/01/17 01:32:41;;;;;;;23.58;7.85;;;-2.80;98.00;;;;;;5052686;28;20540;-65
2024/01/17 01:35:09;;;;;;;22.73;7.00;;;-2.80;98.00;;;;;;5053259;28;20815;-65
2024/01/17 01:37:36;;;;;;;14.95;6.90;;;-2.80;98.00;;;;;;5053590;28;20200;-66
2024/01/17 01:40:04;;;;;;;22.15;7.82;;;-2.80;98.00;;;;;;5053716;28;20219;-66
2024/01/17 01:42:31;;;;;;;14.60;7.00;;;-2.90;98.00;;;;;;5050947;28;20670;-66
2024/01/17 01:44:58;;;;;;;22.17;7.80;;;-2.90;98.00;;;;;;5053964;28;20427;-65
2024/01/17 01:47:25;;;;;;;19.35;7.20;;;-2.80;98.00;;;;;;5053802;28;20200;-65
2024/01/17 01:49:53;;;;;;;23.38;7.22;;;-2.80;98.00;;;;;;5053487;28;20196;-66
2024/01/17 01:52:21;;;;;;;15.40;6.90;;;-2.80;98.00;;;;;;5052649;28;20208;-65
2024/01/17 01:54:49;;;;;;;18.83;7.63;;;-2.80;98.00;;;;;;5053768;28;20268;-66
2024/01/17 01:57:17;;;;;;;17.55;7.03;;;-2.90;98.00;;;;;;5053761;28;20217;-66
2024/01/17 01:59:45;;;;;;;22.97;8.23;;;-2.80;98.00;;;;;;5053175;28;20701;-66
2024/01/17 02:02:15;;;;;;;18.85;7.78;;;-2.90;98.00;;;;;;5052780;28;20471;-66
2024/01/17 02:04:43;;;;;;;16.23;7.72;;;-2.90;98.00;;;;;;5052759;28;20645;-66
2024/01/17 02:07:15;;;;;;;17.83;6.57;;;-3.00;98.00;;;;;;5052760;28;20208;-66
2024/01/17 02:09:44;;;;;;;21.67;7.95;;;-2.80;98.00;;;;;;5052882;28;20239;-66
2024/01/17 02:12:11;;;;;;;20.47;7.37;;;-2.60;98.00;;;;;;5053601;28;20650;-66
2024/01/17 02:14:41;;;;;;;17.77;7.60;;;-2.50;98.00;;;;;;5053506;28;20469;-65
2024/01/17 02:17:09;;;;;;;19.87;7.67;;;-2.40;98.00;;;;;;5051651;28;20212;-65
2024/01/17 02:19:38;;;;;;;17.47;7.20;;;-2.40;98.00;;;;;;5053422;28;20457;-65
2024/01/17 02:22:06;;;;;;;18.03;7.03;;;-2.30;98.00;;;;;;5053366;28;20459;-66
2024/01/17 02:24:35;;;;;;;17.50;7.10;;;-2.20;98.00;;;;;;5053226;28;20490;-65
2024/01/17 02:27:02;;;;;;;17.73;7.10;;;-2.20;98.00;;;;;;5051179;28;20450;-66
2024/01/17 02:29:29;;;;;;;15.10;7.20;;;-2.20;98.00;;;;;;5053278;28;20925;-66
2024/01/17 02:31:57;;;;;;;17.27;7.20;;;-2.20;98.00;;;;;;5053290;28;20482;-66
2024/01/17 02:34:24;;;;;;;20.97;7.97;;;-2.20;98.00;;;;;;5052740;28;20254;-66
2024/01/17 02:36:51;;;;;;;17.10;6.90;;;-2.20;98.00;;;;;;5052314;28;20463;-66
2024/01/17 02:39:19;;;;;;;20.70;6.67;;;-2.20;98.00;;;;;;5052698;28;20451;-66
2024/01/17 02:41:48;;;;;;;21.23;7.63;;;-2.20;98.00;;;;;;5052962;28;20451;-67
2024/01/17 02:44:15;;;;;;;20.80;7.50;;;-2.20;98.00;;;;;;5052797;28;20221;-66
2024/01/17 02:46:42;;;;;;;16.30;6.63;;;-2.20;98.00;;;;;;5053008;28;20451;-66
2024/01/17 02:49:14;;;;;;;21.57;7.20;;;-2.10;98.00;;;;;;5052888;28;20452;-66
2024/01/17 02:51:41;;;;;;;12.87;6.27;;;-2.00;98.00;;;;;;5053112;28;21621;-65
2024/01/17 02:54:08;;;;;;;16.30;6.27;;;-2.10;98.00;;;;;;5052939;28;20455;-66
2024/01/17 02:56:35;;;;;;;17.53;7.13;;;-2.00;98.00;;;;;;5052920;28;20845;-66
2024/01/17 02:59:03;;;;;;;15.60;7.20;;;-1.90;98.00;;;;;;5053112;28;20448;-65
2024/01/17 03:01:30;;;;;;;19.27;7.60;;;-1.90;98.00;;;;;;5051311;28;20460;-66
2024/01/17 03:03:58;;;;;;;18.13;6.90;;;-1.80;98.00;;;;;;5052322;28;20855;-66
2024/01/17 03:06:26;;;;;;;20.93;7.30;;;-1.80;98.00;;;;;;5052499;28;20451;-66
2024/01/17 03:08:54;;;;;;;17.37;6.63;;;-1.70;98.00;;;;;;5052520;28;20459;-65
2024/01/17 03:11:21;;;;;;;14.93;7.30;;;-1.80;98.00;;;;;;5052482;28;20456;-66
2024/01/17 03:13:48;;;;;;;19.53;7.70;;;-2.00;98.00;;;;;;5052251;28;20480;-65
2024/01/17 03:16:19;;;;;;;18.43;6.50;;;-2.00;98.00;;;;;;5052123;28;20450;-65
2024/01/17 03:18:46;;;;;;;25.50;8.13;;;-1.90;98.00;;;;;;5052617;28;20453;-66
2024/01/17 03:21:14;;;;;;;17.70;7.80;;;-2.00;98.00;;;;;;5052532;28;20466;-66
2024/01/17 03:23:41;;;;;;;18.73;6.53;;;-2.00;98.00;;;;;;5051947;28;20494;-65
2024/01/17 03:26:08;;;;;;;17.07;6.93;;;-2.00;98.00;;;;;;5052104;28;20464;-66
2024/01/17 03:28:35;;;;;;;19.47;6.70;;;-1.80;98.00;;;;;;5051904;28;20456;-65
2024/01/17 03:31:03;;;;;;;19.60;7.70;;;-1.70;98.00;;;;;;5052194;28;20500;-66
2024/01/17 03:33:33;;;;;;;15.33;7.10;;;-1.60;98.00;;;;;;5051557;28;20459;-66
2024/01/17 03:36:00;;;;;;;16.27;6.83;;;-1.50;98.00;;;;;;5051754;28;20449;-66
2024/01/17 03:38:27;;;;;;;18.30;6.90;;;-1.50;98.00;;;;;;5051714;28;20979;-66
2024/01/17 03:40:56;;;;;;;14.35;6.63;;;-1.60;98.00;;;;;;5052133;28;20486;-65
2024/01/17 03:43:23;;;;;;;16.20;6.40;;;-1.70;98.00;;;;;;5051799;28;20210;-66
2024/01/17 03:45:52;;;;;;;20.03;7.80;;;-1.70;98.00;;;;;;5051957;28;20209;-66
2024/01/17 03:48:19;;;;;;;20.70;7.30;;;-1.80;98.00;;;;;;5051618;28;20450;-66
2024/01/17 03:50:48;;;;;;;15.27;6.60;;;-1.90;98.00;;;;;;5051787;28;20462;-65
2024/01/17 03:53:16;;;;;;;23.67;8.27;;;-1.90;98.00;;;;;;5051819;28;20830;-65
2024/01/17 03:55:43;;;;;;;19.40;8.03;;;-1.90;98.00;;;;;;5051634;28;20826;-65
2024/01/17 03:58:10;;;;;;;14.23;6.80;;;-1.80;98.00;;;;;;5051728;28;20450;-65
2024/01/17 04:00:37;;;;;;;19.87;7.40;;;-1.70;98.00;;;;;;5051848;28;20661;-66
2024/01/17 04:03:05;;;;;;;24.23;7.63;;;-1.80;98.00;;;;;;5051754;28;20450;-66
2024/01/17 04:05:32;;;;;;;21.63;7.63;;;-1.80;98.00;;;;;;5051724;28;20492;-65
2024/01/17 04:08:00;;;;;;;18.40;7.00;;;-1.90;98.00;;;;;;5051840;28;20798;-66
2024/01/17 04:10:28;;;;;;;21.90;8.20;;;-1.90;98.00;;;;;;5051777;28;20500;-65
2024/01/17 04:12:55;;;;;;;18.53;6.43;;;-1.90;98.00;;;;;;5050599;28;20861;-66
2024/01/17 04:15:25;;;;;;;18.58;7.07;;;-1.80;98.00;;;;;;5051538;28;20460;-65
2024/01/17 04:17:52;;;;;;;17.90;6.97;;;-1.80;98.00;;;;;;5050465;28;20234;-66
2024/01/17 04:20:20;;;;;;;22.57;8.10;;;-1.60;98.00;;;;;;5051815;28;20943;-66
2024/01/17 04:22:47;;;;;;;16.10;6.30;;;-1.60;98.00;;;;;;5051663;28;20547;-66
2024/01/17 04:25:15;;;;;;;20.03;7.60;;;-1.40;98.00;;;;;;5051582;28;21142;-66
2024/01/17 04:27:42;;;;;;;20.33;8.60;;;-1.30;98.00;;;;;;5051841;28;20454;-65
2024/01/17 04:30:13;;;;;;;18.30;7.00;;;-1.20;98.00;;;;;;5051786;28;20939;-66
2024/01/17 04:32:41;;;;;;;17.43;7.10;;;-1.10;98.00;;;;;;5051690;28;20809;-66
2024/01/17 04:35:09;;;;;;;17.30;6.20;;;-1.20;98.00;;;;;;5051654;28;20459;-65
2024/01/17 04:37:39;;;;;;;15.27;7.00;;;-1.30;98.00;;;;;;5051519;28;20441;-66
2024/01/17 04:40:07;;;;;;;19.93;7.40;;;-1.40;98.00;;;;;;5053802;28;20450;-66
2024/01/17 04:42:36;;;;;;;22.17;8.20;;;-1.40;98.00;;;;;;5055325;28;20458;-65
2024/01/17 04:45:04;;;;;;;20.87;7.93;;;-1.40;98.00;;;;;;5055342;28;20484;-66
2024/01/17 04:47:31;;;;;;;23.87;8.37;;;-1.40;98.00;;;;;;5055281;28;20539;-66
2024/01/17 04:50:01;;;;;;;17.17;6.67;;;-1.40;98.00;;;;;;5055056;28;20451;-66
2024/01/17 04:52:28;;;;;;;20.17;7.70;;;-1.30;98.00;;;;;;5054827;28;20455;-65
2024/01/17 04:54:58;;;;;;;21.30;7.80;;;-1.30;98.00;;;;;;5055137;28;20475;-65
2024/01/17 04:57:25;;;;;;;19.73;7.00;;;-1.40;98.00;;;;;;5054547;28;20857;-66
2024/01/17 04:59:53;;;;;;;21.97;7.20;;;-1.40;98.00;;;;;;5055015;28;20524;-65
2024/01/17 05:02:20;;;;;;;19.37;8.23;;;-1.40;98.00;;;;;;5054630;28;20444;-66
2024/01/17 05:04:47;;;;;;;19.37;7.83;;;-1.40;98.00;;;;;;5054597;28;20488;-66
2024/01/17 05:07:15;;;;;;;21.13;7.97;;;-1.40;98.00;;;;;;5054571;28;20508;-66
2024/01/17 05:09:42;;;;;;;20.03;7.53;;;-1.30;98.00;;;;;;5054737;28;20465;-65
2024/01/17 05:12:09;;;;;;;18.73;7.67;;;-1.10;98.00;;;;;;5054567;28;20467;-65
2024/01/17 05:14:36;;;;;;;26.33;8.17;;;-1.00;98.00;;;;;;5054340;28;20489;-66
2024/01/17 05:17:05;;;;;;;20.50;7.97;;;-0.90;98.00;;;;;;5054537;28;21055;-65
2024/01/17 05:19:32;;;;;;;17.47;6.37;;;-0.90;98.00;;;;;;5054830;28;20459;-66
2024/01/17 05:21:59;;;;;;;23.10;8.00;;;-1.00;98.00;;;;;;5054662;28;20464;-65
2024/01/17 05:24:28;;;;;;;21.23;8.27;;;-1.10;98.00;;;;;;5054297;28;20993;-66
2024/01/17 05:26:55;;;;;;;16.30;7.40;;;-1.00;98.00;;;;;;5054232;28;20811;-66
2024/01/17 05:29:23;;;;;;;24.50;7.80;;;-0.80;98.00;;;;;;5054705;28;20455;-65
2024/01/17 05:31:50;;;;;;;15.27;7.50;;;-0.80;98.00;;;;;;5054584;28;20942;-66
2024/01/17 05:34:19;;;;;;;19.00;7.10;;;-1.00;98.00;;;;;;5054365;28;20457;-66
2024/01/17 05:36:46;;;;;;;18.90;7.70;;;-0.90;98.00;;;;;;5054202;28;20461;-66
2024/01/17 05:39:14;;;;;;;24.67;8.40;;;-0.90;98.00;;;;;;5054167;28;20510;-66
2024/01/17 05:41:41;;;;;;;19.30;7.83;;;-1.00;98.00;;;;;;5054320;28;20465;-66
2024/01/17 05:44:08;;;;;;;19.07;7.30;;;-0.90;98.00;;;;;;5053892;28;20481;-65
2024/01/17 05:46:35;;;;;;;16.23;7.40;;;-0.90;98.00;;;;;;5053997;28;20452;-65
2024/01/17 05:49:02;;;;;;;22.20;7.73;;;-0.80;98.00;;;;;;5053888;28;20457;-66
2024/01/17 05:51:31;;;;;;;22.70;7.87;;;-0.70;98.00;;;;;;5052806;28;20490;-66
2024/01/17 05:53:59;;;;;;;22.00;7.47;;;-0.70;98.00;;;;;;5053897;28;20456;-65
2024/01/17 05:56:29;;;;;;;19.87;8.07;;;-0.50;98.00;;;;;;5053819;28;20460;-66
2024/01/17 05:58:56;;;;;;;19.80;8.23;;;-0.60;98.00;;;;;;5053726;28;20941;-65
2024/01/17 06:01:23;;;;;;;20.43;7.93;;;-0.60;98.00;;;;;;5053849;28;20523;-66
2024/01/17 06:03:50;;;;;;;19.93;6.90;;;-0.60;98.00;;;;;;5053686;28;20488;-66
2024/01/17 06:06:18;;;;;;;21.73;8.43;;;-0.40;98.00;;;;;;5052416;28;20575;-65
2024/01/17 06:08:47;;;;;;;21.27;8.53;;;-0.40;98.00;;;;;;5053790;28;20926;-66
2024/01/17 06:11:14;;;;;;;19.73;8.40;;;-0.30;98.00;;;;;;5053746;28;20460;-66
2024/01/17 06:13:41;;;;;;;24.30;8.87;;;-0.30;98.00;;;;;;5053645;28;20452;-65
2024/01/17 06:16:08;;;;;;;18.03;8.30;;;-0.20;98.00;;;;;;5052450;28;20469;-66
2024/01/17 06:18:35;;;;;;;19.33;7.60;;;-0.10;98.00;;;;;;5053781;28;20465;-66
2024/01/17 06:21:03;;;;;;;27.20;9.73;;;-0.20;98.00;;;;;;5053562;28;20538;-65
2024/01/17 06:23:30;;;;;;;20.00;7.97;;;-0.30;98.00;;;;;;5053597;28;20602;-65
2024/01/17 06:25:59;;;;;;;20.93;8.10;;;-0.20;98.00;;;;;;5053915;28;20567;-66
2024/01/17 06:28:26;;;;;;;22.33;8.40;;;-0.20;98.00;;;;;;5053574;28;20448;-65
2024/01/17 06:30:53;;;;;;;20.40;7.83;;;-0.20;98.00;;;;;;5053551;28;20460;-66
2024/01/17 06:33:20;;;;;;;21.63;8.20;;;-0.10;98.00;;;;;;5053175;28;20978;-66
2024/01/17 06:35:50;;;;;;;18.93;8.20;;;-0.10;98.00;;;;;;5053056;28;20816;-66
2024/01/17 06:38:17;;;;;;;22.40;8.30;;;-0.20;98.00;;;;;;5052451;28;20488;-66
2024/01/17 06:40:44;;;;;;;25.30;8.93;;;-0.30;98.00;;;;;;5053007;28;20453;-66
2024/01/17 06:43:13;;;;;;;19.37;8.10;;;-0.20;98.00;;;;;;5052996;28;20457;-66
2024/01/17 06:45:40;;;;;;;19.10;7.37;;;-0.10;98.00;;;;;;5052425;28;20488;-65
2024/01/17 06:48:10;;;;;;;25.00;8.63;;;-0.10;98.00;;;;;;5052807;28;21446;-66
2024/01/17 06:50:37;;;;;;;24.43;8.63;;;0.00;98.00;;;;;;5052548;28;20459;-66
2024/01/17 06:53:04;;;;;;;20.90;8.10;;;0.00;98.00;;;;;;5052595;28;20969;-66
2024/01/17 06:55:32;;;;;;;18.60;8.23;;;0.10;98.00;;;;;;5052689;28;20472;-66
2024/01/17 06:57:59;;;;;;;22.17;8.13;;;0.00;98.00;;;;;;5052539;28;20456;-66
2024/01/17 07:00:28;;;;;;;24.63;9.00;;;0.00;98.00;;;;;;5052565;28;20503;-64
2024/01/17 07:02:55;;;;;;;20.87;7.53;;;0.00;98.00;;;;;;5052021;28;20869;-64
2024/01/17 07:05:23;;;;;;;22.63;7.67;;;-0.10;98.00;;;;;;5052317;28;20579;-63
2024/01/17 07:07:50;;;;;;;19.43;8.30;;;0.00;98.00;;;;;;5052481;28;20457;-63
2024/01/17 07:10:17;;;;;;;22.73;8.67;;;0.10;98.00;;;;;;5052427;28;20460;-64
2024/01/17 07:12:44;;;;;;;23.00;8.20;;;0.20;98.00;;;;;;5052409;28;20465;-64
2024/01/17 07:15:11;;;;;;;18.70;8.63;;;0.10;98.00;;;;;;5052107;28;20476;-65
2024/01/17 07:17:39;;;;;;;20.57;8.63;;;0.00;98.00;;;;;;5052529;28;20460;-64
2024/01/17 07:20:08;;;;;;;22.27;8.53;;;0.10;98.00;;;;;;5052236;28;20457;-63
2024/01/17 07:22:41;;;;;;;24.40;8.70;;;0.30;98.00;;;;;;5052335;28;20465;-64
2024/01/17 07:25:10;;;;;;;24.13;8.90;;;0.20;98.00;;;;;;5052468;28;20491;-63
2024/01/17 07:27:45;;;;;;;18.53;8.03;;;0.10;98.00;;;;;;5052253;28;20464;-64
2024/01/17 07:30:14;;;;;;;18.27;7.93;;;0.10;98.00;;;;;;5052184;28;20551;-64
2024/01/17 07:32:43;;;;;;;25.87;8.77;;;0.20;98.00;;;;;;5052079;28;21006;-64
2024/01/17 07:35:10;;;;;;;25.57;9.70;;;0.40;98.00;;;;;;5051949;28;20462;-64
2024/01/17 07:37:37;;;;;;;19.70;8.20;;;0.40;98.00;;;;;;5052122;28;20481;-64
2024/01/17 07:40:05;;;;;;;24.00;9.53;;;0.50;98.00;;;;;;5052018;28;20454;-63
2024/01/17 07:42:32;;;;;;;29.37;10.10;;;0.40;98.00;;;;;;5051867;28;20874;-64
2024/01/17 07:44:59;;;;;;;26.03;10.77;;;0.40;98.00;;;;;;5051885;28;20487;-63
2024/01/17 07:47:26;;;;;;;25.80;9.30;;;0.40;98.00;;;;;;5051838;28;20464;-63
2024/01/17 07:49:59;;;;;;;27.33;9.20;;;0.50;98.00;;;;;;5052076;28;20461;-63
2024/01/17 07:52:26;;;;;;;27.93;10.20;;;0.50;98.00;;;;;;5051836;28;20516;-63
2024/01/17 07:54:53;;;;;;;26.20;9.70;;;0.70;98.00;;;;;;5052225;28;20453;-63
2024/01/17 07:57:20;;;;;;;20.23;8.67;;;0.80;98.00;;;;;;5051852;28;20460;-64
2024/01/17 07:59:48;;;;;;;26.00;8.87;;;0.90;98.00;;;;;;5052153;28;20460;-64
2024/01/17 08:02:17;;;;;;;24.40;9.83;;;0.80;98.00;;;;;;5051859;28;20464;-64
2024/01/17 08:04:44;;;;;;;25.20;10.00;;;0.80;98.00;;;;;;5051683;28;20449;-64
2024/01/17 08:07:13;;;;;;;26.87;9.47;;;0.70;98.00;;;;;;5051626;28;20924;-65
2024/01/17 08:09:41;;;;;;;25.50;8.90;;;0.80;98.00;;;;;;5051934;28;20518;-64
2024/01/17 08:12:09;;;;;;;26.93;9.23;;;0.80;98.00;;;;;;5051870;28;20518;-64
2024/01/17 08:14:36;;;;;;;19.30;9.10;;;0.90;98.00;;;;;;5052895;28;20458;-64
2024/01/17 08:17:03;;;;;;;22.90;9.77;;;1.00;98.00;;;;;;5056160;28;20783;-64
2024/01/17 08:19:30;;;;;;;25.17;9.70;;;0.90;98.00;;;;;;5056085;28;20556;-64
2024/01/17 08:21:57;;;;;;;24.97;9.30;;;0.90;98.00;;;;;;5056230;28;20457;-64
2024/01/17 08:24:26;;;;;;;22.10;8.40;;;0.90;98.00;;;;;;5055835;28;20458;-64
2024/01/17 08:26:52;;;;;;;25.83;10.13;;;0.90;98.00;;;;;;5055796;28;20507;-64
2024/01/17 08:29:20;;;;;;;21.17;8.63;;;1.10;98.00;;;;;;5055811;28;20932;-64
2024/01/17 08:31:47;;;;;;;22.63;9.40;;;1.20;98.00;;;;;;5055805;28;20537;-64
2024/01/17 08:34:14;;;;;;;24.20;9.60;;;1.30;98.00;;;;;;5037615;28;20464;-64
2024/01/17 08:36:41;;;;;;;24.87;9.20;;;1.30;98.00;;;;;;5055387;28;20504;-64
2024/01/17 08:39:09;;;;;;;22.83;8.83;;;1.40;98.00;;;;;;5037568;28;20464;-64
2024/01/17 08:41:40;;;;;;;27.57;9.70;;;1.30;98.00;;;;;;5037770;28;20493;-64
2024/01/17 08:44:07;;;;;;;22.70;8.27;;;1.40;98.00;;;;;;5055167;28;20508;-64
2024/01/17 08:46:42;;;;;;;23.73;8.57;;;1.40;98.00;;;;;;5054826;28;20581;-64
2024/01/17 08:49:13;;;;;;;18.43;8.23;;;1.50;98.00;;;;;;5038690;28;20839;-64
2024/01/17 08:51:40;;;;;;;21.80;8.60;;;1.40;98.00;;;;;;5055112;28;21065;-64
2024/01/17 08:54:07;;;;;;;21.80;8.43;;;1.50;98.00;;;;;;5054919;28;20458;-64
2024/01/17 08:56:39;;;;;;;22.17;8.60;;;1.40;98.00;;;;;;5049987;28;20730;-64
2024/01/17 08:59:07;;;;;;;16.17;6.87;;;1.40;98.00;;;;;;5064084;28;20814;-64
2024/01/17 09:01:34;;;;;;;23.80;9.07;;;1.40;98.00;;;;;;5062354;28;20446;-64
2024/01/17 09:04:01;;;;;;;22.57;8.67;;;1.40;98.00;;;;;;5054612;28;20450;-64
2024/01/17 09:06:29;;;;;;;24.67;9.83;;;1.60;98.00;;;;;;5054548;28;20496;-64
2024/01/17 09:08:56;;;;;;;22.77;8.87;;;1.70;98.00;;;;;;5054448;28;20540;-64
2024/01/17 09:11:24;;;;;;;20.60;8.67;;;1.70;98.00;;;;;;5054901;28;20483;-64
2024/01/17 09:13:52;;;;;;;20.27;8.40;;;1.80;98.00;;;;;;5054120;28;20515;-64
2024/01/17 09:16:19;;;;;;;22.70;8.40;;;1.80;98.00;;;;;;5054035;28;20457;-64
2024/01/17 09:18:46;;;;;;;22.23;8.70;;;1.90;98.00;;;;;;5054568;28;20462;-64
2024/01/17 09:21:14;;;;;;;23.90;9.07;;;2.00;98.00;;;;;;5054450;28;20450;-64
2024/01/17 09:23:41;;;;;;;25.07;8.23;;;1.90;98.00;;;;;;5057311;28;20918;-64
2024/01/17 09:26:08;;;;;;;22.60;8.57;;;2.00;98.00;;;;;;5063798;28;20481;-64
2024/01/17 09:28:35;;;;;;;23.73;9.00;;;1.80;98.00;;;;;;5069876;28;20449;-64
2024/01/17 09:31:04;;;;;;;21.20;8.33;;;1.90;98.00;;;;;;5074163;28;20537;-65
2024/01/17 09:33:31;;;;;;;30.30;9.60;;;2.00;98.00;;;;;;5074163;28;20467;-64
2024/01/17 09:35:58;;;;;;;24.27;9.27;;;2.10;98.00;;;;;;5074632;28;20456;-64
2024/01/17 09:38:28;;;;;;;20.70;7.97;;;2.10;98.00;;;;;;5074078;28;20470;-64
2024/01/17 09:40:55;;;;;;;18.77;8.40;;;2.00;98.00;;;;;;5063147;28;20857;-63
2024/01/17 09:43:24;;;;;;;21.37;8.70;;;1.90;98.00;;;;;;5054066;28;20460;-64
2024/01/17 09:45:52;;;;;;;22.80;8.43;;;2.00;98.00;;;;;;5054312;28;20489;-64
2024/01/17 09:48:24;;;;;;;24.00;8.90;;;1.90;98.00;;;;;;5053722;28;20457;-64
2024/01/17 09:50:51;;;;;;;27.50;9.33;;;1.90;98.00;;;;;;5053421;28;20462;-63
2024/01/17 09:53:25;;;;;;;25.87;9.27;;;1.90;98.00;;;;;;5053688;28;20446;-63
2024/01/17 09:55:54;;;;;;;25.00;9.73;;;1.80;98.00;;;;;;5053499;28;20454;-63
2024/01/17 09:58:21;;;;;;;19.93;8.73;;;1.80;98.00;;;;;;5052993;28;20461;-63
2024/01/17 10:00:51;;;;;;;23.10;9.77;;;1.80;98.00;;;;;;5053756;28;20454;-64
2024/01/17 10:03:21;;;;;;;26.80;9.43;;;1.90;98.00;;;;;;5053579;28;21009;-65
2024/01/17 10:05:51;;;;;;;20.73;8.40;;;2.00;98.00;;;;;;5053672;28;21053;-64
2024/01/17 10:08:19;;;;;;;25.30;8.80;;;2.00;98.00;;;;;;5053802;28;20850;-63
2024/01/17 10:10:49;;;;;;;21.57;9.17;;;2.00;98.00;;;;;;5053788;28;20450;-63
2024/01/17 10:13:16;;;;;;;20.87;8.20;;;2.00;98.00;;;;;;5053340;28;21057;-63
2024/01/17 10:15:44;;;;;;;25.07;8.07;;;1.90;98.00;;;;;;5053272;28;20469;-63
2024/01/17 10:18:12;;;;;;;21.93;8.40;;;2.00;98.00;;;;;;5053202;28;20465;-62
2024/01/17 10:20:40;;;;;;;20.80;8.77;;;2.00;98.00;;;;;;5052391;28;20486;-65
2024/01/17 10:23:08;;;;;;;17.10;8.47;;;1.90;98.00;;;;;;5053573;28;20943;-64
2024/01/17 10:25:38;;;;;;;17.07;7.67;;;1.90;98.00;;;;;;5053040;28;20481;-64
2024/01/17 10:28:06;;;;;;;21.20;8.50;;;1.90;98.00;;;;;;5058740;28;20553;-64
2024/01/17 10:30:35;;;;;;;16.67;6.80;;;1.90;98.00;;;;;;5028463;28;20466;-64
2024/01/17 10:33:02;;;;;;;13.33;6.17;;;2.00;98.00;;;;;;5033020;28;20478;-64
2024/01/17 10:35:30;;;;;;;17.83;7.40;;;2.00;98.00;;;;;;5015550;28;20980;-65
2024/01/17 10:37:58;;;;;;;19.10;7.50;;;2.00;98.00;;;;;;5032474;28;20446;-63
2024/01/17 10:40:26;;;;;;;24.10;7.33;;;2.00;98.00;;;;;;5032781;28;20534;-65
2024/01/17 10:43:09;;;;;;;18.53;8.27;;;2.10;98.00;;;;;;5032722;28;20458;-65
2024/01/17 10:45:37;;;;;;;24.63;8.97;;;2.20;98.00;;;;;;5032793;28;20478;-65
2024/01/17 10:48:05;;;;;;;22.70;9.30;;;2.20;98.00;;;;;;5032992;28;20868;-65
2024/01/17 10:50:33;;;;;;;26.53;9.60;;;2.30;98.00;;;;;;5032881;28;20549;-64
2024/01/17 10:53:05;;;;;;;23.30;9.70;;;2.20;98.00;;;;;;5015055;28;20454;-66
2024/01/17 10:55:35;;;;;;;24.03;8.67;;;2.10;98.00;;;;;;5032407;28;20463;-65
2024/01/17 10:58:09;;;;;;;30.97;10.20;;;2.10;98.00;;;;;;5032551;28;21268;-64
2024/01/17 11:00:38;;;;;;;24.40;8.07;;;2.10;98.00;;;;;;5032811;28;20452;-65
2024/01/17 11:03:09;;;;;;;16.17;7.23;;;2.10;98.00;;;;;;5014730;28;20685;-65
2024/01/17 11:05:49;;;;;;;14.27;6.20;;;2.10;98.00;;;;;;5032461;28;20459;-65
2024/01/17 11:08:18;;;;;;;13.90;6.90;;;2.10;98.00;;;;;;5032297;28;20455;-66
2024/01/17 11:10:50;;;;;;;21.80;7.47;;;2.10;98.00;;;;;;5032343;28;20456;-64
2024/01/17 11:13:18;;;;;;;12.70;5.67;;;2.10;98.00;;;;;;5052361;28;21016;-64
2024/01/17 11:15:46;;;;;;;21.47;7.00;;;2.20;98.00;;;;;;5051712;28;20498;-65
2024/01/17 11:18:14;;;;;;;15.40;7.47;;;2.40;98.00;;;;;;5051554;28;20453;-64
2024/01/17 11:20:43;;;;;;;18.33;7.27;;;2.50;98.00;;;;;;5051860;28;20454;-66
2024/01/17 11:23:23;;;;;;;16.80;6.63;;;2.60;98.00;;;;;;5051826;28;20796;-65
2024/01/17 11:25:58;;;;;;;16.37;7.17;;;2.70;98.00;;;;;;5052128;28;20465;-64
2024/01/17 11:28:36;;;;;;;17.27;6.57;;;2.60;98.00;;;;;;5051837;28;20846;-64
2024/01/17 11:31:18;;;;;;;15.30;6.07;;;2.50;98.00;;;;;;5034877;28;20797;-65
2024/01/17 11:33:46;;;;;;;13.87;6.10;;;2.50;98.00;;;;;;5052241;28;20466;-65
2024/01/17 11:36:40;;;;;;;16.07;6.63;;;2.50;98.00;;;;;;5051923;28;20463;-65
2024/01/17 11:39:10;;;;;;;13.73;6.20;;;2.60;98.00;;;;;;5034290;28;20515;-65
2024/01/17 11:41:38;;;;;;;15.53;6.30;;;2.60;98.00;;;;;;5051695;28;20450;-65
2024/01/17 11:44:07;;;;;;;14.50;6.47;;;2.60;98.00;;;;;;5034753;28;20832;-65
2024/01/17 11:46:35;;;;;;;19.13;8.10;;;2.70;98.00;;;;;;5034216;28;20521;-66
2024/01/17 11:49:02;;;;;;;12.10;5.43;;;2.60;98.00;;;;;;5050990;28;20543;-65
2024/01/17 11:51:29;;;;;;;10.97;5.03;;;2.60;98.00;;;;;;5051842;28;20486;-64
2024/01/17 11:53:57;;;;;;;13.83;6.50;;;2.70;98.00;;;;;;5051541;28;20501;-66
2024/01/17 11:56:27;;;;;;;12.00;4.97;;;2.70;98.00;;;;;;5051753;28;20450;-65
2024/01/17 11:58:59;;;;;;;15.30;6.87;;;2.80;98.00;;;;;;5052119;28;20462;-65
2024/01/17 12:01:41;;;;;;;13.00;5.70;;;2.80;98.00;;;;;;5051969;28;20456;-65
2024/01/17 12:04:13;;;;;;;15.33;6.33;;;2.90;98.00;;;;;;5051818;28;20460;-65
2024/01/17 12:06:42;;;;;;;17.00;6.27;;;2.90;98.00;;;;;;5051738;28;20513;-65
2024/01/17 12:09:17;;;;;;;10.87;5.13;;;3.00;98.00;;;;;;5051564;28;20462;-65
2024/01/17 12:11:49;;;;;;;12.83;5.63;;;3.10;98.00;;;;;;5051337;28;20452;-66
2024/01/17 12:14:17;;;;;;;14.40;6.03;;;3.20;98.00;;;;;;5051325;28;20472;-67
2024/01/17 12:16:46;;;;;;;15.10;5.83;;;3.50;98.00;;;;;;5051361;28;20450;-65
2024/01/17 12:19:14;;;;;;;18.10;7.27;;;3.60;98.00;;;;;;5050907;28;20506;-65
2024/01/17 12:21:42;;;;;;;15.87;6.53;;;3.80;98.00;;;;;;5050162;28;20451;-66
2024/01/17 12:24:11;;;;;;;15.90;6.63;;;3.80;98.00;;;;;;5049843;28;20459;-65
2024/01/17 12:26:39;;;;;;;14.43;5.93;;;3.80;98.00;;;;;;5050511;28;20948;-65
2024/01/17 12:29:08;;;;;;;11.13;5.07;;;3.70;98.00;;;;;;5049557;28;20536;-64
2024/01/17 12:31:36;;;;;;;12.83;5.70;;;3.80;98.00;;;;;;5051237;28;20455;-65
2024/01/17 12:34:04;;;;;;;12.00;5.90;;;3.80;98.00;;;;;;5051113;28;20460;-64
2024/01/17 12:36:35;;;;;;;16.23;5.37;;;3.80;98.00;;;;;;5051358;28;20956;-65
2024/01/17 12:39:04;;;;;;;9.50;4.30;;;3.80;98.00;;;;;;5051387;28;20452;-65
2024/01/17 12:41:33;;;;;;;11.30;5.27;;;3.70;98.00;;;;;;5051244;28;20513;-64
2024/01/17 12:44:00;;;;;;;12.23;5.30;;;3.70;98.00;;;;;;5050997;28;20974;-65
2024/01/17 12:46:29;;;;;;;11.00;5.27;;;;;;;;;;5051026;28;20845;-64